Time;durP1;ratioP1;P1;durP2;ratioP2;P2;SDS_P1;SDS_P2;PMS_P1;PMS_P2;Temp;Humidity;BMP_temperature;BMP_pressure;BME280_temperature;BME280_humidity;BME280_pressure;Samples;Min_cycle;Max_cycle;Signal;HPM_P1;HPM_P2
2024/02/24 00:00:05;;;;;;;5.45;3.45;;;;;;;2.83;71.39;94940.94;4900408;29;20056;-76
2024/02/24 00:02:32;;;;;;;7.45;4.10;;;;;;;2.77;71.25;94949.38;4900494;29;20681;-76
2024/02/24 00:05:01;;;;;;;8.52;3.60;;;;;;;2.73;72.01;94942.97;4899491;29;20053;-77
2024/02/24 00:07:28;;;;;;;4.93;3.55;;;;;;;2.70;71.95;94935.59;4900677;29;20068;-79
2024/02/24 00:09:56;;;;;;;8.23;3.50;;;;;;;2.68;72.00;94929.81;4899948;29;20088;-77
2024/02/24 00:12:23;;;;;;;6.03;3.88;;;;;;;2.68;72.00;94930.63;4899965;29;20052;-76
2024/02/24 00:14:51;;;;;;;6.50;3.75;;;;;;;2.68;72.26;94935.75;4899797;29;20136;-76
2024/02/24 00:17:19;;;;;;;9.13;3.70;;;;;;;2.71;72.19;94950.06;4899890;29;20181;-76
2024/02/24 00:19:46;;;;;;;6.30;3.35;;;;;;;2.76;72.41;94941.84;4900110;29;20081;-76
2024/02/24 00:22:15;;;;;;;6.55;4.03;;;;;;;2.80;72.21;94938.75;4899684;29;20139;-77
2024/02/24 00:24:43;;;;;;;6.13;4.00;;;;;;;2.86;71.95;94940.63;4899592;29;20080;-77
2024/02/24 00:27:09;;;;;;;5.28;3.80;;;;;;;2.93;72.17;94952.78;4899492;29;20425;-77
2024/02/24 00:29:37;;;;;;;8.73;4.72;;;;;;;2.98;72.36;94947.91;4899725;29;20525;-77
2024/02/24 00:32:05;;;;;;;9.02;4.20;;;;;;;3.03;73.07;94954.13;4900068;29;20053;-77
2024/02/24 00:34:33;;;;;;;7.32;4.72;;;;;;;3.09;73.06;94957.78;4899786;29;20092;-77
2024/02/24 00:37:00;;;;;;;6.28;3.92;;;;;;;3.12;72.60;94962.59;4899930;29;20048;-77
2024/02/24 00:39:31;;;;;;;4.75;4.00;;;;;;;3.14;71.94;94965.00;4899502;29;20084;-77
2024/02/24 00:41:58;;;;;;;8.57;4.88;;;;;;;3.13;71.99;94959.06;4899560;29;20044;-77
2024/02/24 00:44:26;;;;;;;6.63;4.32;;;;;;;3.14;71.66;94958.06;4899291;29;20048;-77
2024/02/24 00:46:53;;;;;;;8.88;4.22;;;;;;;3.17;71.72;94962.88;4899792;29;20060;-77
2024/02/24 00:49:21;;;;;;;7.22;4.30;;;;;;;3.18;71.48;94959.31;4899334;29;20052;-77
2024/02/24 00:51:49;;;;;;;6.25;4.30;;;;;;;3.17;71.02;94955.16;4899465;29;20044;-77
2024/02/24 00:54:16;;;;;;;8.15;4.25;;;;;;;3.17;71.37;94955.16;4899082;29;20096;-77
2024/02/24 00:56:45;;;;;;;7.40;4.82;;;;;;;3.16;71.56;94952.75;4899575;29;20083;-77
2024/02/24 00:59:13;;;;;;;7.15;4.43;;;;;;;3.12;71.37;94939.41;4900305;29;20084;-80
2024/02/24 01:01:40;;;;;;;8.38;4.70;;;;;;;3.05;71.58;94941.88;4899847;29;20135;-79
2024/02/24 01:04:08;;;;;;;7.88;5.13;;;;;;;3.00;71.52;94948.56;4899142;29;20052;-80
2024/02/24 01:06:35;;;;;;;6.15;4.82;;;;;;;2.95;71.42;94948.25;4898931;29;20115;-80
2024/02/24 01:09:03;;;;;;;9.60;4.80;;;;;;;2.88;71.25;94945.56;4899056;29;20094;-79
2024/02/24 01:11:31;;;;;;;7.40;4.38;;;;;;;2.80;71.16;94943.88;4898504;29;20092;-79
2024/02/24 01:14:01;;;;;;;7.10;5.10;;;;;;;2.76;71.55;94947.00;4898960;29;20056;-80
2024/02/24 01:16:30;;;;;;;6.85;4.95;;;;;;;2.72;71.50;94936.22;4899438;29;20568;-80
2024/02/24 01:18:58;;;;;;;7.60;5.18;;;;;;;2.68;71.66;94935.75;4899624;29;20135;-80
2024/02/24 01:21:25;;;;;;;11.20;6.65;;;;;;;2.62;72.22;94939.06;4898962;29;20096;-79
2024/02/24 01:23:53;;;;;;;6.65;5.35;;;;;;;2.61;72.13;94936.63;4899188;29;20062;-79
2024/02/24 01:26:22;;;;;;;7.00;4.88;;;;;;;2.56;72.16;94926.88;4899071;29;20585;-79
2024/02/24 01:28:51;;;;;;;6.00;4.88;;;;;;;2.55;72.36;94935.56;4898908;29;20135;-79
2024/02/24 01:31:20;;;;;;;7.07;5.30;;;;;;;2.56;72.30;94947.47;4899112;29;20060;-79
2024/02/24 01:33:48;;;;;;;10.70;5.30;;;;;;;2.54;72.37;94943.47;4899086;29;20076;-78
2024/02/24 01:36:16;;;;;;;8.02;5.22;;;;;;;2.53;72.37;94939.28;4896637;29;20465;-79
2024/02/24 01:38:43;;;;;;;7.80;5.63;;;;;;;2.48;72.10;94939.78;4897725;29;20127;-79
2024/02/24 01:41:11;;;;;;;8.63;5.20;;;;;;;2.45;72.13;94947.88;4898104;29;20053;-78
2024/02/24 01:43:39;;;;;;;8.30;5.13;;;;;;;2.44;72.51;94938.53;4898277;29;20048;-78
2024/02/24 01:46:08;;;;;;;7.72;5.53;;;;;;;2.44;72.15;94941.91;4898618;29;20109;-79
2024/02/24 01:48:37;;;;;;;11.57;5.03;;;;;;;2.43;72.82;94950.59;4898458;29;20243;-79
2024/02/24 01:51:05;;;;;;;7.47;5.13;;;;;;;2.44;72.37;94959.91;4902497;29;20264;-80
2024/02/24 01:53:33;;;;;;;8.43;5.30;;;;;;;2.47;72.68;94956.19;4912322;29;20040;-80
2024/02/24 01:56:02;;;;;;;7.65;5.45;;;;;;;2.47;72.97;94954.44;4911383;29;20437;-80
2024/02/24 01:58:31;;;;;;;7.60;5.30;;;;;;;2.48;72.81;94966.31;4909857;29;20614;-79
2024/02/24 02:00:58;;;;;;;8.25;5.53;;;;;;;2.50;72.67;94970.50;4898613;29;20053;-79
2024/02/24 02:03:26;;;;;;;8.73;5.95;;;;;;;2.47;72.66;94964.72;4898064;29;20059;-79
2024/02/24 02:05:55;;;;;;;9.68;5.53;;;;;;;2.46;72.45;94968.25;4896594;29;20052;-79
2024/02/24 02:08:23;;;;;;;9.50;5.80;;;;;;;2.43;72.87;94960.91;4897013;29;20135;-79
2024/02/24 02:10:52;;;;;;;7.63;5.55;;;;;;;2.43;72.45;94966.03;4898573;29;20164;-79
2024/02/24 02:13:20;;;;;;;9.77;6.28;;;;;;;2.44;72.99;94961.69;4901609;29;20100;-79
2024/02/24 02:15:50;;;;;;;10.35;5.45;;;;;;;2.45;72.81;94965.88;4900673;29;20095;-79
2024/02/24 02:18:18;;;;;;;9.45;6.00;;;;;;;2.45;72.49;94968.47;4900436;29;20056;-79
2024/02/24 02:20:46;;;;;;;9.45;6.22;;;;;;;2.48;73.29;94955.25;4901181;29;20063;-79
2024/02/24 02:23:15;;;;;;;6.35;5.30;;;;;;;2.49;72.95;94967.13;4901945;29;20052;-79
2024/02/24 02:25:43;;;;;;;10.02;5.93;;;;;;;2.52;73.29;94968.56;4902426;29;20060;-80
2024/02/24 02:28:10;;;;;;;7.32;5.60;;;;;;;2.53;73.66;94962.44;4902223;29;20081;-79
2024/02/24 02:30:38;;;;;;;9.77;6.05;;;;;;;2.56;73.93;94962.09;4902256;29;20083;-79
2024/02/24 02:33:08;;;;;;;6.70;5.15;;;;;;;2.59;74.15;94972.06;4901519;29;20049;-79
2024/02/24 02:35:36;;;;;;;6.82;5.22;;;;;;;2.63;73.30;94970.75;4901721;29;20128;-79
2024/02/24 02:38:09;;;;;;;9.95;5.68;;;;;;;2.62;73.10;94971.69;4901553;29;20061;-79
2024/02/24 02:40:38;;;;;;;6.95;5.38;;;;;;;2.62;73.26;94972.53;4902029;29;20124;-79
2024/02/24 02:43:06;;;;;;;7.75;5.75;;;;;;;2.60;73.65;94977.03;4901989;29;20543;-79
2024/02/24 02:45:34;;;;;;;7.82;6.00;;;;;;;2.57;73.52;94981.72;4901867;29;20049;-79
2024/02/24 02:48:03;;;;;;;8.35;5.85;;;;;;;2.54;73.43;94992.38;4901595;29;20497;-79
2024/02/24 02:50:31;;;;;;;8.05;5.93;;;;;;;2.55;73.20;94994.75;4902421;29;20135;-80
2024/02/24 02:52:59;;;;;;;12.50;6.60;;;;;;;2.50;73.04;94993.69;4901838;29;20048;-80
2024/02/24 02:55:26;;;;;;;10.55;6.72;;;;;;;2.46;73.56;94994.00;4902094;29;20095;-79
2024/02/24 02:57:55;;;;;;;8.70;6.07;;;;;;;2.41;73.46;94990.34;4901647;29;20108;-79
2024/02/24 03:00:23;;;;;;;10.32;6.63;;;;;;;2.37;73.45;95000.19;4901585;29;20176;-79
2024/02/24 03:02:50;;;;;;;8.48;6.10;;;;;;;2.31;73.38;94990.56;4901150;29;20469;-79
2024/02/24 03:05:18;;;;;;;10.55;7.22;;;;;;;2.28;73.80;94992.69;4901049;29;20055;-79
2024/02/24 03:07:46;;;;;;;9.27;7.03;;;;;;;2.23;73.58;94993.16;4900908;29;20053;-79
2024/02/24 03:10:13;;;;;;;9.95;6.65;;;;;;;2.17;73.37;94993.88;4900810;29;20148;-79
2024/02/24 03:12:41;;;;;;;9.63;6.25;;;;;;;2.11;73.19;94992.75;4901177;29;20049;-80
2024/02/24 03:15:10;;;;;;;9.02;6.47;;;;;;;2.04;73.71;94990.06;4900709;29;20505;-79
2024/02/24 03:17:38;;;;;;;8.98;6.60;;;;;;;2.01;73.26;94992.16;4900936;29;20044;-79
2024/02/24 03:20:08;;;;;;;9.80;7.55;;;;;;;1.98;73.84;94995.06;4901277;29;20140;-79
2024/02/24 03:22:38;;;;;;;9.10;6.28;;;;;;;1.94;73.85;94999.75;4900782;29;20044;-79
2024/02/24 03:25:07;;;;;;;8.52;6.50;;;;;;;1.91;73.54;95005.22;4900799;29;20513;-78
2024/02/24 03:27:35;;;;;;;8.73;6.50;;;;;;;1.88;73.84;95010.72;4901592;29;20433;-80
2024/02/24 03:30:04;;;;;;;10.32;7.45;;;;;;;1.83;73.88;95008.63;4901076;29;20493;-79
2024/02/24 03:32:33;;;;;;;8.52;6.55;;;;;;;1.81;73.88;95020.06;4900796;29;20494;-79
2024/02/24 03:35:01;;;;;;;10.57;7.13;;;;;;;1.77;74.27;95021.34;4900109;29;20056;-78
2024/02/24 03:37:29;;;;;;;10.43;6.82;;;;;;;1.74;74.38;95021.69;4901314;29;20421;-80
2024/02/24 03:39:57;;;;;;;11.68;7.10;;;;;;;1.74;74.58;95019.91;4900693;29;20060;-79
2024/02/24 03:42:25;;;;;;;9.60;6.75;;;;;;;1.71;74.28;95019.47;4900348;29;20053;-79
2024/02/24 03:44:53;;;;;;;11.52;7.70;;;;;;;1.69;74.36;95026.53;4900952;29;20109;-79
2024/02/24 03:47:21;;;;;;;10.07;7.38;;;;;;;1.68;74.27;95019.78;4900536;29;20063;-79
2024/02/24 03:49:50;;;;;;;8.85;6.55;;;;;;;1.67;74.78;95023.31;4899904;29;20060;-79
2024/02/24 03:52:18;;;;;;;11.00;7.20;;;;;;;1.69;74.69;95026.53;4900058;29;20059;-79
2024/02/24 03:54:45;;;;;;;9.50;6.95;;;;;;;1.72;74.62;95016.69;4900001;29;20497;-79
2024/02/24 03:57:13;;;;;;;9.73;6.63;;;;;;;1.78;74.69;95030.69;4899931;29;20549;-79
2024/02/24 03:59:41;;;;;;;10.25;7.75;;;;;;;1.78;74.56;95020.41;4900453;29;20151;-78
2024/02/24 04:02:09;;;;;;;10.63;7.10;;;;;;;1.77;74.36;95013.63;4915645;29;20049;-79
2024/02/24 04:04:37;;;;;;;10.02;7.38;;;;;;;1.77;74.39;95014.47;4914709;29;20052;-79
2024/02/24 04:07:06;;;;;;;12.07;6.85;;;;;;;1.77;74.29;95029.88;4907562;29;20720;-79
2024/02/24 04:09:34;;;;;;;7.70;6.93;;;;;;;1.78;74.60;95033.25;4900826;29;20048;-79
2024/02/24 04:12:02;;;;;;;9.07;6.63;;;;;;;1.82;74.70;95037.88;4900864;29;20106;-79
2024/02/24 04:14:30;;;;;;;10.38;7.28;;;;;;;1.91;75.92;95033.53;4900031;29;20044;-79
2024/02/24 04:16:57;;;;;;;8.60;7.68;;;;;;;1.98;77.02;95042.16;4899760;29;20087;-79
2024/02/24 04:19:25;;;;;;;12.43;7.43;;;;;;;2.03;76.01;95041.66;4899304;29;20200;-79
2024/02/24 04:21:52;;;;;;;7.65;6.40;;;;;;;2.01;75.21;95041.84;4899653;29;20532;-79
2024/02/24 04:24:21;;;;;;;9.32;6.78;;;;;;;1.99;74.43;95048.94;4898994;29;20144;-79
2024/02/24 04:26:49;;;;;;;8.82;5.93;;;;;;;1.98;74.74;95047.31;4898582;29;20116;-79
2024/02/24 04:29:17;;;;;;;9.88;6.88;;;;;;;1.97;74.39;95058.56;4898562;29;20052;-79
2024/02/24 04:31:44;;;;;;;9.05;6.05;;;;;;;1.97;74.47;95056.00;4899133;29;20063;-79
2024/02/24 04:34:12;;;;;;;9.02;7.00;;;;;;;1.97;74.48;95053.44;4899046;29;20418;-79
2024/02/24 04:36:41;;;;;;;10.77;7.18;;;;;;;1.95;74.08;95039.94;4899150;29;20469;-80
2024/02/24 04:39:09;;;;;;;8.40;6.72;;;;;;;1.93;74.16;95026.44;4899172;29;20049;-79
2024/02/24 04:41:38;;;;;;;9.10;6.38;;;;;;;1.91;74.23;95033.53;4899861;29;20084;-79
2024/02/24 04:44:06;;;;;;;11.13;6.65;;;;;;;1.93;74.19;95034.16;4898885;29;20059;-79
2024/02/24 04:46:35;;;;;;;10.82;6.07;;;;;;;1.95;73.98;95032.22;4898157;29;20056;-79
2024/02/24 04:49:03;;;;;;;7.95;6.03;;;;;;;1.97;74.03;95032.06;4898181;29;20088;-79
2024/02/24 04:51:31;;;;;;;6.90;6.20;;;;;;;1.97;74.17;95035.44;4899306;29;20057;-79
2024/02/24 04:53:58;;;;;;;7.50;5.82;;;;;;;1.95;73.59;95029.66;4899097;29;20056;-79
2024/02/24 04:56:26;;;;;;;8.90;6.10;;;;;;;1.92;73.65;95037.69;4898704;29;20060;-79
2024/02/24 04:58:55;;;;;;;8.15;6.68;;;;;;;1.90;73.71;95047.31;4898826;29;20123;-79
2024/02/24 05:01:23;;;;;;;9.57;6.72;;;;;;;1.88;73.48;95051.88;4899073;29;20056;-79
2024/02/24 05:03:51;;;;;;;8.75;6.63;;;;;;;1.84;73.46;95060.88;4898880;29;20055;-78
2024/02/24 05:06:19;;;;;;;7.03;5.95;;;;;;;1.83;73.83;95066.97;4898948;29;20049;-80
2024/02/24 05:08:46;;;;;;;7.63;6.07;;;;;;;1.84;74.36;95066.81;4898885;29;20045;-79
2024/02/24 05:11:15;;;;;;;7.88;6.03;;;;;;;1.87;73.79;95075.16;4898694;29;20062;-79
2024/02/24 05:13:43;;;;;;;15.73;7.90;;;;;;;1.86;73.75;95082.06;4898815;29;20131;-79
2024/02/24 05:16:13;;;;;;;16.23;8.35;;;;;;;1.90;74.67;95085.91;4896953;29;20053;-77
2024/02/24 05:18:41;;;;;;;11.63;6.90;;;;;;;1.97;75.00;95088.63;4881404;29;20529;-78
2024/02/24 05:21:09;;;;;;;8.68;6.20;;;;;;;2.00;74.85;95085.72;4880000;29;20053;-77
2024/02/24 05:23:37;;;;;;;11.50;6.28;;;;;;;2.07;74.56;95099.53;4881790;29;20055;-77
2024/02/24 05:26:05;;;;;;;8.95;6.00;;;;;;;2.09;74.37;95097.59;4892664;29;20052;-77
2024/02/24 05:28:33;;;;;;;11.73;7.47;;;;;;;2.06;74.24;95101.28;4898646;29;20056;-77
2024/02/24 05:31:00;;;;;;;9.88;6.45;;;;;;;2.04;74.09;95103.22;4892563;29;20051;-78
2024/02/24 05:33:29;;;;;;;8.38;5.68;;;;;;;2.02;74.37;95097.44;4892636;29;20073;-78
2024/02/24 05:35:57;;;;;;;11.23;7.45;;;;;;;1.96;73.71;95095.53;4885597;29;20063;-78
2024/02/24 05:38:25;;;;;;;10.80;6.35;;;;;;;1.93;73.89;95100.22;4899320;29;20056;-79
2024/02/24 05:40:52;;;;;;;8.80;5.47;;;;;;;1.92;73.95;95101.97;4898401;29;20048;-78
2024/02/24 05:43:20;;;;;;;10.40;5.93;;;;;;;1.95;73.99;95098.28;4891388;29;20059;-77
2024/02/24 05:45:48;;;;;;;9.20;6.60;;;;;;;1.95;73.47;95104.22;4897321;29;20131;-78
2024/02/24 05:48:15;;;;;;;8.60;5.68;;;;;;;1.97;74.02;95107.44;4900185;29;20139;-78
2024/02/24 05:50:44;;;;;;;8.00;5.88;;;;;;;2.00;74.68;95119.97;4894405;29;20052;-79
2024/02/24 05:53:12;;;;;;;7.55;4.43;;;;;;;2.03;74.06;95117.06;4901146;29;20073;-78
2024/02/24 05:55:39;;;;;;;7.90;6.18;;;;;;;2.06;74.77;95127.00;4891631;29;20436;-79
2024/02/24 05:58:14;;;;;;;8.07;5.38;;;;;;;2.12;75.66;95117.03;4903893;29;20045;-81
2024/02/24 06:07:13;;;;;;;8.75;5.82;;;;;;;2.21;76.04;95162.38;4887583;29;20059;-81
2024/02/24 06:09:42;;;;;;;7.43;5.80;;;;;;;2.24;75.51;95173.09;4889150;29;20053;-81
2024/02/24 06:12:09;;;;;;;6.25;5.05;;;;;;;2.30;75.76;95174.22;4915607;29;20057;-81
2024/02/24 06:14:37;;;;;;;6.93;5.53;;;;;;;2.37;77.19;95169.22;4915145;29;20060;-80
2024/02/24 06:17:05;;;;;;;6.28;4.82;;;;;;;2.41;76.09;95171.28;4889109;29;20053;-81
2024/02/24 06:19:32;;;;;;;7.00;4.65;;;;;;;2.41;74.76;95165.34;4896373;29;20477;-81
2024/02/24 06:22:00;;;;;;;9.38;5.65;;;;;;;2.43;75.31;95164.22;4906394;29;20061;-79
2024/02/24 06:24:31;;;;;;;6.10;3.83;;;;;;;2.51;76.03;95162.56;4892385;29;20432;-78
2024/02/24 06:26:59;;;;;;;6.45;4.95;;;;;;;2.58;75.89;95164.31;4908069;29;20126;-79
2024/02/24 06:29:27;;;;;;;7.82;4.70;;;;;;;2.67;76.03;95175.38;4916951;29;20057;-81
2024/02/24 06:31:54;;;;;;;7.57;4.82;;;;;;;2.75;75.34;95172.75;4918660;29;20062;-80
2024/02/24 06:34:23;;;;;;;8.90;4.68;;;;;;;2.78;74.08;95177.59;4892097;29;20105;-80
2024/02/24 06:36:51;;;;;;;9.25;5.80;;;;;;;2.82;74.89;95178.84;4894141;29;20053;-79
2024/02/24 06:39:18;;;;;;;5.55;3.70;;;;;;;2.89;74.47;95184.13;4900335;29;20084;-78
2024/02/24 06:41:47;;;;;;;4.65;3.08;;;;;;;2.95;74.08;95190.38;4900859;29;20084;-78
2024/02/24 06:44:15;;;;;;;5.03;3.60;;;;;;;3.01;73.33;95184.53;4894540;29;20132;-78
2024/02/24 06:46:43;;;;;;;5.45;3.97;;;;;;;3.11;73.14;95184.34;4897103;29;20505;-79
2024/02/24 06:49:10;;;;;;;9.30;4.78;;;;;;;3.17;73.75;95181.06;4895725;29;20151;-76
2024/02/24 06:51:39;;;;;;;8.68;4.90;;;;;;;3.21;73.80;95198.59;4910226;29;20157;-77
2024/02/24 06:54:06;;;;;;;9.20;4.85;;;;;;;3.23;73.27;95194.06;4904159;29;20053;-77
2024/02/24 06:56:34;;;;;;;8.07;4.93;;;;;;;3.28;72.82;95186.66;4901366;29;20048;-76
2024/02/24 06:59:06;;;;;;;7.25;4.45;;;;;;;3.35;72.31;95191.91;4899254;29;20519;-77
2024/02/24 07:01:34;;;;;;;5.85;3.92;;;;;;;3.44;74.04;95205.56;4899372;29;20056;-77
2024/02/24 07:04:01;;;;;;;6.15;4.40;;;;;;;3.53;74.32;95209.69;4899137;29;20151;-77
2024/02/24 07:06:29;;;;;;;6.43;4.63;;;;;;;3.63;75.46;95218.00;4898790;29;20084;-77
2024/02/24 07:08:57;;;;;;;6.53;4.60;;;;;;;3.70;75.01;95229.22;4899039;29;20063;-77
2024/02/24 07:11:25;;;;;;;6.25;4.25;;;;;;;3.77;75.40;95228.53;4900323;29;20425;-77
2024/02/24 07:13:52;;;;;;;7.43;4.80;;;;;;;3.84;74.86;95229.44;4901268;29;20045;-77
2024/02/24 07:16:21;;;;;;;8.57;5.53;;;;;;;3.83;73.58;95233.00;4901457;29;20508;-77
2024/02/24 07:18:49;;;;;;;10.90;5.28;;;;;;;3.78;73.10;95235.28;4901539;29;20053;-77
2024/02/24 07:21:16;;;;;;;7.00;4.70;;;;;;;3.77;72.72;95246.59;4901078;29;20068;-77
2024/02/24 07:23:44;;;;;;;6.47;4.65;;;;;;;3.75;72.35;95253.69;4900889;29;20056;-77
2024/02/24 07:26:12;;;;;;;9.43;3.92;;;;;;;3.70;72.46;95260.16;4902545;29;20107;-77
2024/02/24 07:28:40;;;;;;;4.30;3.25;;;;;;;3.67;72.54;95265.69;4900859;29;20052;-77
2024/02/24 07:31:08;;;;;;;5.75;3.75;;;;;;;3.66;73.59;95273.56;4901173;29;20085;-77
2024/02/24 07:33:38;;;;;;;4.85;3.40;;;;;;;3.66;74.04;95286.47;4901187;29;20131;-77
2024/02/24 07:36:07;;;;;;;4.70;3.10;;;;;;;3.68;74.40;95297.41;4900406;29;20064;-77
2024/02/24 07:38:34;;;;;;;5.68;3.20;;;;;;;3.69;74.68;95299.81;4900334;29;20136;-77
2024/02/24 07:41:04;;;;;;;5.05;3.13;;;;;;;3.71;74.18;95308.19;4901093;29;20056;-77
2024/02/24 07:43:32;;;;;;;4.75;2.90;;;;;;;3.76;74.13;95309.44;4900536;29;20488;-77
2024/02/24 07:45:59;;;;;;;6.13;3.63;;;;;;;3.82;73.87;95319.09;4899955;29;20108;-77
2024/02/24 07:48:27;;;;;;;3.17;2.60;;;;;;;3.88;73.73;95324.34;4900456;29;20048;-77
2024/02/24 07:50:56;;;;;;;4.90;2.90;;;;;;;3.97;75.39;95321.72;4900451;29;20469;-77
2024/02/24 07:53:23;;;;;;;2.70;2.38;;;;;;;4.03;75.20;95316.69;4907950;29;20043;-77
2024/02/24 07:55:52;;;;;;;2.55;2.17;;;;;;;4.09;73.83;95331.47;4921957;29;20062;-77
2024/02/24 07:58:20;;;;;;;3.70;2.22;;;;;;;4.16;73.91;95338.53;4920351;29;20036;-77
2024/02/24 08:00:47;;;;;;;2.92;2.17;;;;;;;4.23;75.20;95342.03;4903808;29;20072;-77
2024/02/24 08:03:20;;;;;;;2.70;1.83;;;;;;;4.30;75.16;95337.78;4900988;29;20049;-77
2024/02/24 08:05:48;;;;;;;4.72;2.50;;;;;;;4.36;74.42;95347.41;4900096;29;20078;-77
2024/02/24 08:08:17;;;;;;;2.88;1.77;;;;;;;4.45;75.33;95346.34;4900229;29;20052;-77
2024/02/24 08:10:44;;;;;;;2.72;2.00;;;;;;;4.54;75.98;95350.47;4900269;29;20064;-77
2024/02/24 08:13:12;;;;;;;3.08;2.00;;;;;;;4.61;75.16;95350.56;4900204;29;20071;-78
2024/02/24 08:15:39;;;;;;;1.80;1.42;;;;;;;4.67;74.13;95365.38;4904634;29;20124;-77
2024/02/24 08:18:07;;;;;;;2.67;1.92;;;;;;;4.73;74.97;95363.88;4921265;29;20069;-77
2024/02/24 08:20:35;;;;;;;4.93;2.45;;;;;;;4.76;73.50;95363.53;4920632;29;20040;-78
2024/02/24 08:23:03;;;;;;;15.95;5.28;;;;;;;4.75;72.15;95351.59;4915075;29;20056;-78
2024/02/24 08:25:32;;;;;;;8.65;4.78;;;;;;;4.74;71.25;95366.31;4900339;29;20091;-77
2024/02/24 08:28:00;;;;;;;5.38;3.90;;;;;;;4.71;70.86;95368.44;4900791;29;20052;-78
2024/02/24 08:30:27;;;;;;;8.18;4.18;;;;;;;4.69;70.62;95367.78;4901146;29;20076;-78
2024/02/24 08:32:55;;;;;;;5.32;3.83;;;;;;;4.67;71.05;95359.41;4901347;29;20080;-78
2024/02/24 08:35:22;;;;;;;2.97;2.55;;;;;;;4.64;71.01;95367.53;4901346;29;20536;-78
2024/02/24 08:37:50;;;;;;;5.60;3.15;;;;;;;4.64;71.86;95359.78;4899923;29;20053;-78
2024/02/24 08:40:18;;;;;;;6.30;4.07;;;;;;;4.66;71.48;95368.16;4899734;29;20080;-77
2024/02/24 08:42:47;;;;;;;7.95;3.38;;;;;;;4.68;71.07;95376.50;4899234;29;20160;-77
2024/02/24 08:45:14;;;;;;;3.67;3.10;;;;;;;4.73;72.22;95374.22;4899533;29;20048;-78
2024/02/24 08:47:42;;;;;;;4.80;3.22;;;;;;;4.79;72.65;95385.63;4899436;29;20083;-77
2024/02/24 08:50:10;;;;;;;6.70;3.50;;;;;;;4.81;71.60;95391.41;4899577;29;20049;-77
2024/02/24 08:52:38;;;;;;;5.45;3.72;;;;;;;4.84;71.92;95397.03;4899460;29;20501;-77
2024/02/24 08:55:16;;;;;;;5.47;4.05;;;;;;;4.89;71.13;95399.91;4900004;29;20056;-78
2024/02/24 08:57:44;;;;;;;5.50;3.33;;;;;;;4.88;70.64;95407.84;4899431;29;20048;-78
2024/02/24 09:00:14;;;;;;;5.53;3.53;;;;;;;4.88;70.13;95413.00;4899862;29;20116;-77
2024/02/24 09:02:42;;;;;;;5.47;3.20;;;;;;;4.89;70.03;95420.56;4900157;29;20079;-77
2024/02/24 09:05:09;;;;;;;6.13;3.40;;;;;;;4.91;69.91;95416.03;4899461;29;20056;-78
2024/02/24 09:07:37;;;;;;;8.15;3.33;;;;;;;4.97;69.74;95416.31;4899333;29;20048;-78
2024/02/24 09:10:06;;;;;;;4.15;2.97;;;;;;;5.06;70.27;95421.22;4899309;29;20053;-78
2024/02/24 09:12:35;;;;;;;7.25;3.15;;;;;;;5.18;71.10;95406.06;4899951;29;20055;-78
2024/02/24 09:15:03;;;;;;;5.05;2.75;;;;;;;5.31;69.91;95414.03;4898752;29;20080;-77
2024/02/24 09:17:32;;;;;;;2.03;1.00;;;;;;;5.46;69.78;95426.16;4898994;29;20084;-78
2024/02/24 09:20:00;;;;;;;1.00;0.20;;;;;;;5.57;69.32;95430.88;4898843;29;20505;-78
2024/02/24 09:22:28;;;;;;;0.35;0.20;;;;;;;5.68;68.48;95419.28;4898564;29;20112;-78
2024/02/24 09:24:56;;;;;;;0.63;0.30;;;;;;;5.78;69.41;95420.59;4898311;29;20140;-78
2024/02/24 09:27:23;;;;;;;0.73;0.20;;;;;;;5.93;70.32;95417.22;4899013;29;20048;-78
2024/02/24 09:29:51;;;;;;;0.82;0.63;;;;;;;6.09;69.49;95424.78;4899235;29;20063;-78
2024/02/24 09:32:18;;;;;;;0.50;0.50;;;;;;;6.28;68.60;95414.81;4916332;29;20073;-78
2024/02/24 09:34:47;;;;;;;1.23;0.40;;;;;;;6.57;68.72;95421.66;4919764;29;20049;-77
2024/02/24 09:37:15;;;;;;;0.45;0.40;;;;;;;6.87;67.93;95424.94;4919704;29;20035;-77
2024/02/24 09:39:43;;;;;;;1.20;0.35;;;;;;;7.22;66.22;95437.94;4899720;29;20052;-78
2024/02/24 09:42:11;;;;;;;1.00;0.40;;;;;;;7.61;67.06;95436.59;4901614;29;20128;-78
2024/02/24 09:44:40;;;;;;;0.38;0.38;;;;;;;8.03;67.12;95434.78;4904813;29;20080;-78
2024/02/24 09:47:09;;;;;;;0.43;0.30;;;;;;;8.51;65.43;95444.34;4899902;29;20131;-77
2024/02/24 09:49:36;;;;;;;0.10;0.10;;;;;;;8.89;64.39;95439.38;4899228;29;20057;-78
2024/02/24 09:52:06;;;;;;;0.32;0.32;;;;;;;9.26;64.48;95445.78;4898069;29;20060;-78
2024/02/24 09:54:35;;;;;;;1.50;0.30;;;;;;;9.63;63.18;95440.13;4898094;29;20055;-78
2024/02/24 09:57:03;;;;;;;0.22;0.22;;;;;;;9.94;62.55;95441.25;4897810;29;20059;-78
2024/02/24 09:59:33;;;;;;;0.13;0.13;;;;;;;10.19;58.98;95441.34;4898692;29;20068;-78
2024/02/24 10:02:01;;;;;;;1.40;0.38;;;;;;;10.30;59.03;95444.13;4897855;29;20056;-78
2024/02/24 10:04:28;;;;;;;0.45;0.30;;;;;;;10.52;57.19;95438.59;4897821;29;20052;-78
2024/02/24 10:06:56;;;;;;;0.35;0.20;;;;;;;10.85;57.34;95443.59;4897989;29;20113;-78
2024/02/24 10:09:25;;;;;;;0.32;0.30;;;;;;;11.27;58.00;95446.50;4898321;29;20139;-78
2024/02/24 10:11:53;;;;;;;0.20;0.20;;;;;;;11.71;57.85;95443.88;4897479;29;20139;-78
2024/02/24 10:14:21;;;;;;;0.57;0.22;;;;;;;12.18;57.10;95446.81;4897428;29;20056;-78
2024/02/24 10:16:52;;;;;;;0.45;0.28;;;;;;;12.69;54.02;95448.13;4896976;29;20049;-78
2024/02/24 10:19:20;;;;;;;0.55;0.30;;;;;;;13.07;50.26;95435.69;4897258;29;20085;-78
2024/02/24 10:21:51;;;;;;;2.08;0.20;;;;;;;13.55;51.86;95440.75;4897194;29;20131;-78
2024/02/24 10:24:19;;;;;;;0.20;0.20;;;;;;;13.98;51.10;95449.28;4896792;29;20057;-76
2024/02/24 10:26:52;;;;;;;0.40;0.38;;;;;;;14.35;47.73;95454.19;4898564;29;20063;-76
2024/02/24 10:29:20;;;;;;;;;;;;;;;14.75;49.08;95451.53;4897562;29;20234;-76
2024/02/24 10:31:48;;;;;;;0.20;0.10;;;;;;;15.08;45.27;95444.75;4897988;29;19923;-76
2024/02/24 10:34:16;;;;;;;0.57;0.20;;;;;;;15.33;43.91;95454.88;4900178;29;20056;-76
2024/02/24 10:36:46;;;;;;;0.30;0.20;;;;;;;15.51;43.19;95456.44;4900145;29;20048;-76
2024/02/24 10:39:16;;;;;;;0.50;0.20;;;;;;;15.56;42.25;95459.13;4900479;29;20060;-76
2024/02/24 10:41:46;;;;;;;3.25;0.50;;;;;;;15.60;42.27;95470.75;4900614;29;20060;-77
2024/02/24 10:44:15;;;;;;;0.25;0.25;;;;;;;15.55;41.65;95462.03;4900686;29;20049;-77
2024/02/24 10:46:50;;;;;;;0.63;0.22;;;;;;;15.61;44.46;95469.75;4900561;29;20652;-76
2024/02/24 10:49:17;;;;;;;0.22;0.20;;;;;;;15.85;43.25;95482.69;4900141;29;20049;-76
2024/02/24 10:51:49;;;;;;;0.20;0.20;;;;;;;16.04;42.97;95481.38;4900184;29;20135;-77
2024/02/24 10:54:23;;;;;;;0.60;0.60;;;;;;;16.38;42.80;95488.38;4899946;29;20076;-76
2024/02/24 10:56:56;;;;;;;1.13;0.57;;;;;;;16.73;41.43;95501.16;4899829;29;20072;-77
2024/02/24 10:59:30;;;;;;;0.20;0.20;;;;;;;17.08;41.80;95494.69;4899749;29;20060;-77
2024/02/24 11:02:00;;;;;;;0.73;0.10;;;;;;;17.48;37.12;95480.25;4899802;29;20116;-77
2024/02/24 11:04:28;;;;;;;0.10;0.10;;;;;;;17.83;38.95;95485.00;4900757;29;20581;-77
2024/02/24 11:06:57;;;;;;;1.70;0.55;;;;;;;18.21;35.98;95488.34;4900212;29;20053;-76
2024/02/24 11:09:30;;;;;;;0.20;0.10;;;;;;;18.40;33.75;95483.41;4900176;29;20052;-77
2024/02/24 11:12:10;;;;;;;0.10;0.10;;;;;;;18.60;36.53;95495.09;4899986;29;20508;-77
2024/02/24 11:14:42;;;;;;;0.32;0.10;;;;;;;18.83;34.17;95493.91;4899473;29;20100;-77
2024/02/24 11:17:10;;;;;;;0.30;0.20;;;;;;;18.98;35.74;95472.78;4899621;29;20048;-77
2024/02/24 11:19:43;;;;;;;0.17;0.10;;;;;;;19.23;34.78;95477.28;4899739;29;20063;-77
2024/02/24 11:22:19;;;;;;;0.00;0.00;;;;;;;19.40;31.42;95471.75;4902955;29;20058;-77
2024/02/24 11:24:59;;;;;;;0.10;0.08;;;;;;;19.50;32.70;95469.09;4903550;29;20603;-77
2024/02/24 11:27:29;;;;;;;0.25;0.00;;;;;;;19.66;31.58;95461.94;4911704;29;20089;-78
2024/02/24 11:29:59;;;;;;;0.55;0.10;;;;;;;19.92;32.88;95462.72;4919837;29;20070;-76
2024/02/24 11:32:27;;;;;;;0.52;0.17;;;;;;;20.02;34.19;95459.22;4916298;29;20496;-78
2024/02/24 11:34:56;;;;;;;0.50;0.22;;;;;;;20.15;32.75;95460.53;4903669;29;20063;-78
2024/02/24 11:37:24;;;;;;;1.55;0.10;;;;;;;20.28;32.70;95472.38;4901647;29;20501;-78
2024/02/24 11:39:52;;;;;;;0.03;0.03;;;;;;;20.39;31.48;95468.63;4902494;29;20053;-78
2024/02/24 11:42:20;;;;;;;1.27;0.10;;;;;;;20.48;32.09;95471.50;4902093;29;20063;-78
2024/02/24 11:44:50;;;;;;;0.77;0.20;;;;;;;20.51;33.45;95471.78;4901383;29;20588;-78
2024/02/24 11:47:19;;;;;;;0.10;0.10;;;;;;;20.65;30.08;95471.19;4902464;29;20151;-78
2024/02/24 11:49:48;;;;;;;0.30;0.10;;;;;;;20.80;29.37;95468.47;4902457;29;20056;-78